Time;durP1;ratioP1;P1;durP2;ratioP2;P2;SDS_P1;SDS_P2;PMS_P1;PMS_P2;Temp;Humidity;BMP_temperature;BMP_pressure;BME280_temperature;BME280_humidity;BME280_pressure;Samples;Min_cycle;Max_cycle;Signal;HPM_P1;HPM_P2
2022/02/16 00:00:02;;;;;;;0.40;0.20;;;7.70;91.80;;;;;;4990605;28;20461;-72
2022/02/16 00:02:28;;;;;;;0.40;0.20;;;7.70;91.80;;;;;;4991277;28;20474;-72
2022/02/16 00:04:54;;;;;;;0.40;0.20;;;7.70;92.00;;;;;;4989774;28;20511;-73
2022/02/16 00:07:20;;;;;;;0.40;0.20;;;7.80;91.80;;;;;;4990002;28;20469;-72
2022/02/16 00:09:45;;;;;;;0.40;0.20;;;7.70;91.90;;;;;;4973332;28;20909;-72
2022/02/16 00:12:11;;;;;;;0.40;0.20;;;7.70;92.20;;;;;;4989991;28;21193;-72
2022/02/16 00:14:37;;;;;;;0.40;0.20;;;7.70;91.90;;;;;;4991118;28;20754;-72
2022/02/16 00:17:03;;;;;;;0.40;0.20;;;7.70;92.20;;;;;;4954097;28;20416;-73
2022/02/16 00:19:28;;;;;;;0.40;0.20;;;7.70;92.30;;;;;;4979598;28;20898;-70
2022/02/16 00:21:54;;;;;;;0.50;0.40;;;7.80;92.60;;;;;;4991774;28;20403;-72
2022/02/16 00:24:20;;;;;;;0.50;0.50;;;7.80;92.70;;;;;;4990889;28;20461;-72
2022/02/16 00:26:46;;;;;;;0.40;0.20;;;7.80;93.10;;;;;;4992038;28;20791;-72
2022/02/16 00:29:12;;;;;;;0.40;0.20;;;7.70;93.70;;;;;;4989531;28;20394;-72
2022/02/16 00:31:38;;;;;;;0.40;0.20;;;7.80;93.60;;;;;;4990692;28;20406;-72
2022/02/16 00:34:05;;;;;;;0.40;0.20;;;7.80;93.80;;;;;;4991432;28;20461;-72
2022/02/16 00:36:30;;;;;;;0.40;0.20;;;7.80;93.70;;;;;;4991032;28;21011;-72
2022/02/16 00:38:56;;;;;;;0.40;0.20;;;7.70;94.20;;;;;;4991313;28;20382;-72
2022/02/16 00:41:22;;;;;;;0.40;0.20;;;7.80;94.10;;;;;;4990726;28;20474;-73
2022/02/16 00:43:47;;;;;;;0.40;0.20;;;7.80;94.20;;;;;;4991165;28;20391;-72
2022/02/16 00:46:13;;;;;;;0.40;0.20;;;7.80;94.10;;;;;;4991229;28;20390;-72
2022/02/16 00:48:39;;;;;;;0.40;0.20;;;7.90;94.20;;;;;;4990190;28;20390;-72
2022/02/16 00:51:04;;;;;;;0.40;0.20;;;7.80;94.40;;;;;;4990848;28;20409;-72
2022/02/16 00:53:30;;;;;;;0.40;0.20;;;7.90;94.40;;;;;;4990690;28;20394;-72
2022/02/16 00:55:56;;;;;;;0.40;0.20;;;7.80;94.80;;;;;;4990922;28;20411;-72
2022/02/16 00:58:21;;;;;;;0.40;0.20;;;7.90;94.80;;;;;;4990900;28;20465;-72
2022/02/16 01:00:48;;;;;;;0.40;0.20;;;7.80;94.60;;;;;;4990532;28;20395;-72
2022/02/16 01:03:14;;;;;;;0.40;0.20;;;7.80;94.80;;;;;;4991686;28;20477;-71
2022/02/16 01:05:39;;;;;;;0.40;0.20;;;7.80;95.00;;;;;;4990503;28;20846;-71
2022/02/16 01:08:08;;;;;;;0.40;0.20;;;7.80;95.60;;;;;;4990994;28;20396;-71
2022/02/16 01:10:34;;;;;;;0.40;0.20;;;7.80;96.00;;;;;;4990266;28;20910;-71
2022/02/16 01:13:00;;;;;;;0.40;0.20;;;7.80;96.70;;;;;;4991477;28;20413;-72
2022/02/16 01:15:25;;;;;;;0.90;0.90;;;7.70;97.00;;;;;;4973698;28;20418;-71
2022/02/16 01:17:51;;;;;;;0.40;0.20;;;7.60;98.70;;;;;;4972606;28;20390;-71
2022/02/16 01:20:17;;;;;;;0.40;0.20;;;7.50;99.90;;;;;;4990537;28;20399;-71
2022/02/16 01:22:43;;;;;;;0.40;0.20;;;7.60;99.70;;;;;;4972648;28;20386;-72
2022/02/16 01:25:08;;;;;;;0.40;0.20;;;7.70;98.50;;;;;;4991085;28;20441;-72
2022/02/16 01:27:34;;;;;;;0.40;0.20;;;7.70;99.10;;;;;;4991019;28;20390;-71
2022/02/16 01:30:00;;;;;;;0.40;0.20;;;7.70;99.50;;;;;;4990153;28;20387;-72
2022/02/16 01:32:25;;;;;;;0.40;0.20;;;7.80;98.20;;;;;;4990730;28;20371;-71
2022/02/16 01:34:51;;;;;;;0.40;0.20;;;7.80;98.90;;;;;;4990231;28;20414;-72
2022/02/16 01:37:17;;;;;;;0.40;0.20;;;7.80;98.90;;;;;;4990662;28;20405;-71
2022/02/16 01:39:42;;;;;;;0.40;0.20;;;7.80;99.70;;;;;;4991973;28;20473;-72
2022/02/16 01:42:18;;;;;;;0.40;0.20;;;7.80;99.40;;;;;;4976455;28;20561;-71
2022/02/16 01:44:44;;;;;;;0.40;0.20;;;7.90;98.60;;;;;;4994526;28;20891;-72
2022/02/16 01:47:10;;;;;;;0.40;0.20;;;7.90;98.10;;;;;;4993623;28;20782;-71
2022/02/16 01:49:38;;;;;;;0.40;0.30;;;7.90;98.60;;;;;;4994263;28;20510;-72
2022/02/16 01:52:06;;;;;;;0.40;0.20;;;8.00;98.70;;;;;;4993711;28;20398;-72
2022/02/16 01:54:31;;;;;;;0.40;0.20;;;7.90;98.70;;;;;;4994493;28;20477;-72
2022/02/16 01:56:58;;;;;;;0.40;0.20;;;7.90;99.40;;;;;;4994330;28;20473;-71
2022/02/16 01:59:25;;;;;;;0.40;0.20;;;7.90;99.70;;;;;;4993513;28;20714;-72
2022/02/16 02:01:51;;;;;;;0.40;0.20;;;7.90;99.90;;;;;;4994505;28;20392;-71
2022/02/16 02:04:19;;;;;;;0.40;0.20;;;8.00;99.50;;;;;;4993413;28;20394;-72
2022/02/16 02:06:46;;;;;;;0.40;0.20;;;7.90;99.90;;;;;;4976853;28;20878;-72
2022/02/16 02:09:14;;;;;;;0.40;0.20;;;8.00;99.40;;;;;;4993215;28;20382;-72
2022/02/16 02:11:40;;;;;;;0.40;0.20;;;8.00;99.70;;;;;;4993818;28;20402;-71
2022/02/16 02:14:07;;;;;;;0.40;0.20;;;8.00;99.80;;;;;;4994338;28;20566;-71
2022/02/16 02:16:36;;;;;;;0.40;0.20;;;8.10;99.80;;;;;;4993306;28;20422;-71
2022/02/16 02:19:01;;;;;;;0.40;0.20;;;8.00;99.90;;;;;;4993717;28;20395;-71
2022/02/16 02:21:27;;;;;;;0.40;0.20;;;8.10;99.90;;;;;;4993359;28;20445;-71
2022/02/16 02:23:56;;;;;;;0.40;0.20;;;8.00;99.90;;;;;;4993944;28;20476;-72
2022/02/16 02:26:22;;;;;;;0.40;0.20;;;8.10;99.90;;;;;;4993588;28;20548;-72
2022/02/16 02:28:47;;;;;;;0.40;0.20;;;8.00;99.90;;;;;;4993125;28;20422;-72
2022/02/16 02:31:14;;;;;;;0.40;0.20;;;8.00;99.90;;;;;;4994137;28;20867;-72
2022/02/16 02:33:40;;;;;;;0.40;0.20;;;8.00;99.90;;;;;;4993302;28;20386;-71
2022/02/16 02:36:07;;;;;;;0.40;0.20;;;8.10;99.90;;;;;;4993756;28;20513;-72
2022/02/16 02:38:33;;;;;;;0.40;0.20;;;8.20;99.90;;;;;;4975837;28;20557;-71
2022/02/16 02:41:02;;;;;;;0.40;0.22;;;8.20;99.90;;;;;;4976022;28;20387;-72
2022/02/16 02:43:29;;;;;;;0.40;0.20;;;8.20;99.90;;;;;;4993341;28;20390;-72
2022/02/16 02:45:55;;;;;;;0.40;0.20;;;8.30;99.90;;;;;;4992760;28;20399;-72
2022/02/16 02:48:22;;;;;;;0.40;0.20;;;8.30;99.90;;;;;;4993274;28;20860;-71
2022/02/16 02:50:50;;;;;;;0.40;0.20;;;8.30;99.90;;;;;;4992466;28;20382;-72
2022/02/16 02:53:16;;;;;;;0.40;0.20;;;8.40;99.90;;;;;;4992725;28;20417;-71
2022/02/16 02:55:42;;;;;;;0.40;0.20;;;8.30;99.90;;;;;;4993286;28;20414;-72
2022/02/16 02:58:08;;;;;;;0.40;0.20;;;8.40;99.90;;;;;;4992459;28;20452;-71
2022/02/16 03:00:34;;;;;;;0.40;0.20;;;8.40;99.90;;;;;;4975793;28;20441;-72
2022/02/16 03:03:00;;;;;;;0.60;0.60;;;8.40;99.90;;;;;;4992513;28;20406;-71
2022/02/16 03:05:25;;;;;;;0.40;0.20;;;8.30;99.90;;;;;;4993013;28;20433;-71
2022/02/16 03:07:51;;;;;;;0.40;0.20;;;8.40;99.90;;;;;;4992903;28;20878;-71
2022/02/16 03:10:17;;;;;;;0.40;0.20;;;8.30;99.90;;;;;;4992191;28;20490;-72
2022/02/16 03:12:43;;;;;;;0.40;0.20;;;8.30;99.90;;;;;;4992749;28;20394;-71
2022/02/16 03:15:09;;;;;;;0.40;0.30;;;8.40;99.90;;;;;;4992199;28;20492;-72
2022/02/16 03:17:35;;;;;;;0.40;0.20;;;8.40;99.90;;;;;;4992215;28;20464;-71
2022/02/16 03:20:01;;;;;;;0.40;0.20;;;8.40;99.90;;;;;;4992659;28;20391;-71
2022/02/16 03:22:27;;;;;;;0.40;0.30;;;8.40;99.90;;;;;;4992162;28;20706;-72
2022/02/16 03:24:52;;;;;;;0.40;0.20;;;8.40;99.90;;;;;;4992960;28;20474;-71
2022/02/16 03:27:18;;;;;;;0.40;0.20;;;8.40;99.90;;;;;;4991762;28;20387;-72
2022/02/16 03:29:44;;;;;;;0.40;0.20;;;8.50;99.90;;;;;;4992044;28;20418;-72
2022/02/16 03:32:09;;;;;;;0.40;0.20;;;8.40;99.90;;;;;;4992279;28;20422;-71
2022/02/16 03:34:35;;;;;;;0.40;0.20;;;8.50;99.90;;;;;;4973504;28;20398;-71
2022/02/16 03:37:01;;;;;;;0.40;0.20;;;8.40;99.90;;;;;;4992505;28;20426;-71
2022/02/16 03:39:27;;;;;;;0.50;0.50;;;8.40;99.90;;;;;;4991328;28;20453;-72
2022/02/16 03:41:52;;;;;;;0.40;0.20;;;8.40;99.90;;;;;;4992476;28;20390;-71
2022/02/16 03:44:19;;;;;;;0.40;0.20;;;8.40;99.90;;;;;;4992359;28;20469;-71
2022/02/16 03:46:46;;;;;;;0.40;0.20;;;8.40;99.90;;;;;;4991687;28;20470;-72
2022/02/16 03:49:12;;;;;;;0.40;0.20;;;8.40;99.90;;;;;;4991698;28;20406;-72
2022/02/16 03:51:38;;;;;;;0.40;0.20;;;8.40;99.90;;;;;;4991198;28;20394;-72
2022/02/16 03:54:04;;;;;;;0.40;0.30;;;8.30;99.90;;;;;;4974612;28;20448;-71
2022/02/16 03:56:30;;;;;;;0.40;0.20;;;8.40;99.90;;;;;;4991968;28;20425;-71
2022/02/16 03:58:56;;;;;;;0.40;0.20;;;8.40;99.90;;;;;;4991080;28;20386;-72
2022/02/16 04:01:21;;;;;;;0.40;0.20;;;8.30;99.90;;;;;;4991840;28;20379;-72
2022/02/16 04:03:47;;;;;;;0.40;0.20;;;8.40;99.90;;;;;;4991121;28;20391;-72
2022/02/16 04:06:13;;;;;;;0.40;0.20;;;8.40;99.90;;;;;;4991907;28;20456;-72
2022/02/16 04:08:38;;;;;;;0.40;0.20;;;8.40;99.90;;;;;;4991542;28;20437;-72
2022/02/16 04:11:05;;;;;;;0.40;0.20;;;8.40;99.90;;;;;;4991203;28;20419;-72
2022/02/16 04:13:31;;;;;;;0.40;0.20;;;8.40;99.90;;;;;;4991469;28;20391;-72
2022/02/16 04:15:56;;;;;;;0.40;0.30;;;8.30;99.90;;;;;;4990803;28;20414;-72
2022/02/16 04:18:22;;;;;;;0.40;0.20;;;8.40;99.90;;;;;;4991963;28;20387;-71
2022/02/16 04:20:48;;;;;;;0.40;0.20;;;8.40;99.90;;;;;;4992293;28;20395;-71
2022/02/16 04:23:14;;;;;;;0.40;0.20;;;8.30;99.90;;;;;;4990911;28;20871;-71
2022/02/16 04:25:40;;;;;;;0.40;0.20;;;8.30;99.90;;;;;;4991601;28;20485;-70
2022/02/16 04:28:06;;;;;;;0.40;0.20;;;8.30;99.90;;;;;;4990513;28;20401;-71
2022/02/16 04:30:32;;;;;;;0.60;0.60;;;8.30;99.90;;;;;;4974210;28;20387;-70
2022/02/16 04:32:58;;;;;;;0.40;0.20;;;8.30;99.90;;;;;;4991864;28;20489;-71
2022/02/16 04:35:25;;;;;;;0.40;0.20;;;8.30;99.90;;;;;;4990888;28;20622;-71
2022/02/16 04:37:51;;;;;;;0.40;0.20;;;8.20;99.90;;;;;;4991718;28;20893;-71
2022/02/16 04:40:17;;;;;;;0.40;0.20;;;8.20;99.90;;;;;;4990803;28;20390;-71
2022/02/16 04:42:43;;;;;;;0.40;0.30;;;8.20;99.90;;;;;;4991498;28;20390;-72
2022/02/16 04:45:09;;;;;;;0.40;0.20;;;8.20;99.90;;;;;;4991697;28;20398;-71
2022/02/16 04:47:35;;;;;;;0.40;0.20;;;8.30;99.90;;;;;;4991147;28;20395;-72
2022/02/16 04:50:03;;;;;;;0.40;0.20;;;8.20;99.90;;;;;;4993367;28;20815;-71
2022/02/16 04:52:34;;;;;;;0.40;0.20;;;8.30;99.90;;;;;;4991873;28;20456;-71
2022/02/16 04:55:10;;;;;;;0.40;0.20;;;8.30;99.90;;;;;;4974386;28;20425;-71
2022/02/16 04:57:37;;;;;;;0.40;0.30;;;8.30;99.90;;;;;;4991514;28;20800;-71
2022/02/16 05:00:06;;;;;;;0.40;0.20;;;8.40;99.90;;;;;;4991750;28;20875;-72
2022/02/16 05:02:32;;;;;;;0.40;0.28;;;8.40;99.90;;;;;;4991747;28;20399;-71
2022/02/16 05:04:58;;;;;;;0.40;0.20;;;8.40;99.90;;;;;;4991678;28;20399;-71
2022/02/16 05:07:24;;;;;;;0.40;0.30;;;8.40;99.90;;;;;;4992098;28;20387;-71
2022/02/16 05:09:50;;;;;;;0.40;0.20;;;8.50;99.90;;;;;;4990381;28;20460;-71
2022/02/16 05:12:16;;;;;;;0.40;0.20;;;8.40;99.90;;;;;;4991339;28;20871;-71
2022/02/16 05:14:42;;;;;;;0.40;0.20;;;8.40;99.90;;;;;;4992043;28;20398;-71
2022/02/16 05:17:08;;;;;;;0.40;0.20;;;8.30;99.90;;;;;;4994820;28;20847;-71
2022/02/16 05:19:34;;;;;;;0.40;0.22;;;8.30;99.90;;;;;;4995485;28;20470;-71
2022/02/16 05:22:00;;;;;;;0.40;0.30;;;8.30;99.90;;;;;;4977019;28;20985;-71
2022/02/16 05:24:25;;;;;;;0.40;0.20;;;8.20;99.90;;;;;;4977677;28;20464;-71
2022/02/16 05:26:52;;;;;;;0.40;0.28;;;8.30;99.90;;;;;;4995120;28;20473;-71
2022/02/16 05:29:18;;;;;;;0.40;0.20;;;8.40;99.90;;;;;;4994382;28;20383;-71
2022/02/16 05:31:44;;;;;;;0.40;0.20;;;8.30;99.90;;;;;;4994852;28;20398;-71
2022/02/16 05:34:10;;;;;;;0.40;0.30;;;8.30;99.90;;;;;;4993949;28;20466;-71
2022/02/16 05:36:37;;;;;;;0.40;0.20;;;8.40;99.90;;;;;;4995041;28;20840;-70
2022/02/16 05:39:04;;;;;;;0.40;0.20;;;8.30;99.90;;;;;;4994985;28;20473;-71
2022/02/16 05:41:30;;;;;;;0.40;0.20;;;8.30;99.90;;;;;;4994039;28;20409;-71
2022/02/16 05:43:57;;;;;;;0.40;0.20;;;8.30;99.90;;;;;;4994854;28;20386;-71
2022/02/16 05:46:23;;;;;;;0.40;0.20;;;8.30;99.90;;;;;;4994149;28;20440;-71
2022/02/16 05:48:49;;;;;;;0.40;0.20;;;8.30;99.90;;;;;;4995049;28;20450;-71
2022/02/16 05:51:15;;;;;;;0.40;0.28;;;8.30;99.90;;;;;;4994737;28;20520;-71
2022/02/16 05:53:41;;;;;;;0.40;0.20;;;8.30;99.90;;;;;;4976519;28;20398;-71
2022/02/16 05:56:06;;;;;;;0.40;0.20;;;8.40;99.90;;;;;;4994369;28;20414;-71
2022/02/16 05:58:32;;;;;;;0.40;0.20;;;8.30;99.90;;;;;;4993743;28;20492;-71
2022/02/16 06:01:00;;;;;;;0.40;0.20;;;8.30;99.90;;;;;;4994709;28;20393;-71
2022/02/16 06:03:25;;;;;;;0.40;0.20;;;8.50;99.90;;;;;;4994777;28;20382;-71
2022/02/16 06:05:51;;;;;;;0.40;0.20;;;8.40;99.90;;;;;;4993146;28;20919;-71
2022/02/16 06:08:17;;;;;;;0.40;0.20;;;8.40;99.90;;;;;;4994171;28;20410;-71
2022/02/16 06:10:43;;;;;;;0.40;0.20;;;8.30;99.90;;;;;;4993148;28;20886;-71
2022/02/16 06:13:08;;;;;;;0.40;0.20;;;8.30;99.90;;;;;;4993953;28;20879;-71
2022/02/16 06:15:34;;;;;;;0.40;0.20;;;8.30;99.90;;;;;;4993935;28;20468;-72
2022/02/16 06:18:00;;;;;;;0.40;0.20;;;8.30;99.90;;;;;;4993188;28;20398;-72
2022/02/16 06:20:25;;;;;;;0.40;0.20;;;8.20;99.90;;;;;;4994055;28;20485;-71
2022/02/16 06:22:53;;;;;;;0.40;0.20;;;8.20;99.90;;;;;;4987870;28;20803;-72
2022/02/16 06:25:19;;;;;;;0.40;0.20;;;8.30;99.90;;;;;;4981969;28;20407;-72
2022/02/16 06:27:45;;;;;;;0.40;0.28;;;8.30;99.90;;;;;;4981683;28;20451;-71
2022/02/16 06:30:11;;;;;;;0.40;0.30;;;8.30;99.90;;;;;;4982067;28;20894;-71
2022/02/16 06:32:37;;;;;;;0.40;0.20;;;8.30;99.90;;;;;;4991276;28;20448;-72
2022/02/16 06:35:03;;;;;;;0.40;0.20;;;8.40;99.90;;;;;;4992977;28;20426;-71
2022/02/16 06:37:29;;;;;;;0.40;0.20;;;8.30;99.90;;;;;;4993711;28;20390;-71
2022/02/16 06:39:55;;;;;;;0.40;0.20;;;8.30;99.90;;;;;;4976097;28;20398;-73
2022/02/16 06:42:20;;;;;;;0.40;0.20;;;8.40;99.90;;;;;;4990066;28;20403;-73
2022/02/16 06:44:46;;;;;;;0.40;0.20;;;8.50;99.90;;;;;;4985321;28;20406;-73
2022/02/16 06:47:12;;;;;;;0.40;0.20;;;8.40;99.90;;;;;;4990812;28;20391;-73
2022/02/16 06:49:38;;;;;;;0.40;0.20;;;8.40;99.90;;;;;;4990455;28;20391;-71
2022/02/16 06:52:04;;;;;;;0.40;0.20;;;8.40;99.90;;;;;;4991743;28;20414;-71
2022/02/16 06:54:32;;;;;;;0.40;0.20;;;8.40;99.90;;;;;;4992566;28;20544;-72
2022/02/16 06:57:01;;;;;;;0.40;0.20;;;8.30;99.90;;;;;;4992422;28;20398;-73
2022/02/16 06:59:27;;;;;;;0.40;0.30;;;8.40;99.90;;;;;;4992799;28;20737;-73
2022/02/16 07:01:52;;;;;;;0.40;0.20;;;8.40;99.90;;;;;;4993031;28;20443;-72
2022/02/16 07:04:18;;;;;;;0.40;0.20;;;8.50;99.90;;;;;;4992740;28;20485;-73
2022/02/16 07:06:44;;;;;;;0.40;0.20;;;8.50;99.90;;;;;;4992729;28;20449;-72
2022/02/16 07:09:10;;;;;;;0.40;0.20;;;8.50;99.90;;;;;;4989269;28;20403;-73
2022/02/16 07:11:36;;;;;;;0.40;0.20;;;8.50;99.90;;;;;;4988993;28;20414;-72
2022/02/16 07:14:03;;;;;;;0.40;0.20;;;8.50;99.90;;;;;;4992762;28;20390;-73
2022/02/16 07:16:29;;;;;;;0.40;0.20;;;8.40;99.90;;;;;;4991915;28;20414;-73
2022/02/16 07:18:55;;;;;;;0.40;0.20;;;8.40;99.90;;;;;;4992274;28;20396;-73
2022/02/16 07:21:23;;;;;;;0.40;0.20;;;8.40;99.90;;;;;;4975296;28;20415;-73
2022/02/16 07:23:49;;;;;;;0.40;0.20;;;8.30;99.90;;;;;;4991822;28;20835;-73
2022/02/16 07:26:15;;;;;;;0.40;0.30;;;8.30;99.90;;;;;;4956632;28;20566;-73
2022/02/16 07:28:42;;;;;;;0.40;0.20;;;8.20;99.90;;;;;;4972495;28;20459;-72
2022/02/16 07:31:08;;;;;;;0.40;0.20;;;8.20;99.90;;;;;;4973207;28;20395;-72
2022/02/16 07:33:36;;;;;;;0.40;0.20;;;8.20;99.90;;;;;;4973364;28;20396;-72
2022/02/16 07:36:03;;;;;;;0.40;0.20;;;8.20;99.90;;;;;;4972627;28;20419;-71
2022/02/16 07:38:29;;;;;;;0.40;0.20;;;8.20;99.90;;;;;;4972682;28;20434;-72
2022/02/16 07:40:59;;;;;;;0.40;0.20;;;8.40;99.90;;;;;;4970738;28;20388;-72
2022/02/16 07:43:25;;;;;;;0.40;0.20;;;8.30;99.90;;;;;;4973201;28;20734;-71
2022/02/16 07:45:51;;;;;;;0.40;0.20;;;8.40;99.90;;;;;;4972755;28;20745;-72
2022/02/16 07:48:17;;;;;;;0.40;0.20;;;8.30;99.90;;;;;;4973362;28;20396;-73
2022/02/16 07:50:43;;;;;;;0.40;0.20;;;8.30;99.90;;;;;;4972998;28;20455;-72
2022/02/16 07:53:12;;;;;;;0.40;0.20;;;8.30;99.90;;;;;;4972306;28;20392;-72
2022/02/16 07:55:38;;;;;;;0.40;0.20;;;8.40;99.90;;;;;;4972918;28;20455;-72
2022/02/16 07:58:06;;;;;;;0.40;0.20;;;8.30;99.90;;;;;;4972314;28;20392;-72
2022/02/16 08:00:32;;;;;;;0.40;0.20;;;8.30;99.90;;;;;;4973267;28;20397;-72
2022/02/16 08:02:59;;;;;;;0.40;0.20;;;8.30;99.90;;;;;;4955611;28;20890;-72
2022/02/16 08:05:25;;;;;;;0.40;0.20;;;8.30;99.90;;;;;;4972240;28;20892;-72
2022/02/16 08:07:53;;;;;;;0.40;0.20;;;8.40;99.90;;;;;;4972641;28;20389;-72
2022/02/16 08:10:19;;;;;;;0.40;0.20;;;8.50;99.90;;;;;;4971936;28;20488;-72
2022/02/16 08:12:56;;;;;;;0.40;0.20;;;8.60;99.90;;;;;;4972575;28;20482;-71
2022/02/16 08:15:26;;;;;;;0.40;0.20;;;8.50;99.90;;;;;;4971806;28;20416;-72
2022/02/16 08:17:52;;;;;;;0.40;0.20;;;8.50;99.90;;;;;;4972758;28;20399;-72
2022/02/16 08:20:18;;;;;;;0.40;0.20;;;8.60;99.90;;;;;;4985917;28;20743;-72
2022/02/16 08:22:44;;;;;;;0.40;0.20;;;8.50;99.90;;;;;;4991886;28;20383;-72
2022/02/16 08:25:10;;;;;;;0.40;0.20;;;8.50;99.90;;;;;;4974759;28;20383;-73
2022/02/16 08:27:36;;;;;;;0.40;0.20;;;8.70;99.90;;;;;;4991225;28;20425;-73
2022/02/16 08:30:03;;;;;;;0.40;0.20;;;8.70;99.90;;;;;;4991682;28;20426;-73
2022/02/16 08:32:29;;;;;;;0.40;0.20;;;8.80;99.90;;;;;;4991005;28;20437;-73
2022/02/16 08:34:55;;;;;;;0.40;0.20;;;8.90;99.90;;;;;;4991506;28;20446;-73
2022/02/16 08:37:21;;;;;;;0.40;0.20;;;8.90;99.90;;;;;;4991253;28;20430;-74
2022/02/16 08:39:47;;;;;;;0.40;0.20;;;8.90;99.90;;;;;;4991309;28;20418;-73
2022/02/16 08:42:13;;;;;;;0.40;0.20;;;8.90;99.90;;;;;;4991520;28;20395;-73
2022/02/16 08:44:39;;;;;;;0.40;0.20;;;8.90;99.90;;;;;;4990948;28;20457;-73
2022/02/16 08:47:06;;;;;;;0.40;0.20;;;9.00;99.90;;;;;;4973523;28;20395;-73
2022/02/16 08:49:32;;;;;;;0.40;0.20;;;9.10;99.90;;;;;;4973222;28;20390;-72
2022/02/16 08:51:58;;;;;;;0.40;0.20;;;9.10;99.90;;;;;;4990766;28;20439;-73
2022/02/16 08:54:24;;;;;;;0.40;0.20;;;9.10;99.90;;;;;;4991000;28;20430;-72
2022/02/16 08:56:50;;;;;;;0.40;0.20;;;9.10;99.90;;;;;;4990272;28;20472;-72
2022/02/16 08:59:17;;;;;;;0.40;0.20;;;9.10;99.90;;;;;;4991345;28;20418;-72
2022/02/16 09:01:43;;;;;;;0.40;0.20;;;9.20;99.90;;;;;;4991119;28;20494;-72
2022/02/16 09:04:09;;;;;;;0.40;0.30;;;9.20;99.90;;;;;;4991273;28;20898;-71
2022/02/16 09:06:36;;;;;;;0.40;0.20;;;9.20;99.90;;;;;;4990988;28;20399;-71
2022/02/16 09:09:05;;;;;;;0.40;0.20;;;9.30;99.90;;;;;;4973382;28;20465;-72
2022/02/16 09:11:31;;;;;;;0.40;0.20;;;9.40;99.90;;;;;;4990695;28;20430;-72
2022/02/16 09:13:57;;;;;;;0.40;0.20;;;9.40;99.90;;;;;;4990248;28;20883;-73
2022/02/16 09:16:24;;;;;;;0.40;0.20;;;9.40;99.90;;;;;;4973769;28;21094;-73
2022/02/16 09:18:49;;;;;;;0.40;0.30;;;9.40;99.90;;;;;;4991045;28;20405;-73
2022/02/16 09:21:19;;;;;;;0.40;0.20;;;9.30;99.90;;;;;;4990712;28;20803;-73
2022/02/16 09:23:44;;;;;;;0.40;0.20;;;9.30;99.90;;;;;;4990981;28;20386;-73
2022/02/16 09:26:11;;;;;;;0.40;0.20;;;9.40;99.90;;;;;;4990433;28;20457;-73
2022/02/16 09:28:37;;;;;;;0.40;0.20;;;9.50;99.90;;;;;;4990933;28;20421;-71
2022/02/16 09:31:04;;;;;;;0.40;0.20;;;9.50;99.90;;;;;;4990538;28;20436;-72
2022/02/16 09:33:33;;;;;;;0.40;0.20;;;9.40;99.90;;;;;;4991226;28;20481;-72
2022/02/16 09:35:59;;;;;;;0.40;0.20;;;9.40;99.90;;;;;;4986742;28;20802;-72
2022/02/16 09:38:25;;;;;;;0.40;0.20;;;9.40;99.90;;;;;;4990401;28;20453;-72
2022/02/16 09:40:53;;;;;;;0.40;0.20;;;9.30;99.90;;;;;;4991033;28;20393;-72
2022/02/16 09:43:22;;;;;;;0.40;0.20;;;9.30;99.90;;;;;;4990261;28;20473;-72
2022/02/16 09:45:55;;;;;;;0.40;0.20;;;9.40;99.90;;;;;;4991174;28;20391;-72
2022/02/16 09:48:22;;;;;;;0.40;0.20;;;9.40;99.90;;;;;;4990255;28;20394;-72
2022/02/16 09:50:49;;;;;;;0.40;0.30;;;9.40;99.90;;;;;;4990684;28;20883;-72
2022/02/16 09:53:15;;;;;;;0.40;0.20;;;9.40;99.90;;;;;;4973005;28;20394;-72
2022/02/16 09:55:41;;;;;;;0.40;0.20;;;9.40;99.90;;;;;;4990597;28;20775;-71
2022/02/16 09:58:07;;;;;;;0.40;0.20;;;9.40;99.90;;;;;;4990943;28;20398;-73
2022/02/16 10:00:33;;;;;;;0.40;0.20;;;9.60;99.90;;;;;;4990630;28;20433;-72
2022/02/16 10:03:13;;;;;;;0.40;0.20;;;9.60;99.90;;;;;;4994908;28;20391;-72
2022/02/16 10:05:39;;;;;;;0.40;0.20;;;9.50;99.90;;;;;;4993637;28;20397;-72
2022/02/16 10:08:06;;;;;;;0.40;0.30;;;9.60;99.90;;;;;;4994523;28;20383;-72
2022/02/16 10:10:32;;;;;;;0.40;0.20;;;9.70;99.90;;;;;;4975812;28;20442;-72
2022/02/16 10:13:00;;;;;;;0.40;0.20;;;9.60;99.90;;;;;;4994145;28;20397;-72
2022/02/16 10:15:40;;;;;;;0.40;0.20;;;9.60;99.90;;;;;;4993479;28;20425;-72
2022/02/16 10:18:16;;;;;;;0.40;0.20;;;9.70;99.90;;;;;;4994293;28;20407;-72
2022/02/16 10:20:43;;;;;;;0.40;0.20;;;9.70;99.90;;;;;;4975891;28;20955;-72
2022/02/16 10:23:10;;;;;;;0.40;0.20;;;9.70;99.90;;;;;;4994205;28;20394;-73
2022/02/16 10:25:37;;;;;;;0.40;0.20;;;9.70;99.90;;;;;;4993409;28;20402;-73
2022/02/16 10:28:08;;;;;;;0.40;0.20;;;9.80;99.90;;;;;;4976665;28;20446;-73
2022/02/16 10:30:36;;;;;;;0.40;0.20;;;9.80;99.90;;;;;;4993978;28;20474;-73
2022/02/16 10:33:21;;;;;;;0.40;0.20;;;9.80;99.90;;;;;;4993393;28;20394;-73
2022/02/16 10:35:48;;;;;;;0.40;0.20;;;9.80;99.90;;;;;;4975810;28;20421;-73
2022/02/16 10:38:15;;;;;;;0.40;0.20;;;9.90;99.90;;;;;;4993874;28;20402;-73
2022/02/16 10:40:41;;;;;;;0.40;0.20;;;9.90;99.90;;;;;;4993923;28;20430;-72
2022/02/16 10:43:07;;;;;;;0.40;0.20;;;9.90;99.90;;;;;;4994066;28;20386;-73
2022/02/16 10:45:45;;;;;;;0.40;0.20;;;9.90;99.90;;;;;;4993615;28;20891;-72
2022/02/16 10:48:11;;;;;;;0.40;0.20;;;9.90;99.90;;;;;;4993478;28;20422;-72
2022/02/16 10:50:47;;;;;;;0.40;0.20;;;9.90;99.90;;;;;;4993376;28;20504;-73
2022/02/16 10:53:13;;;;;;;0.40;0.20;;;9.90;99.90;;;;;;4993376;28;20393;-72
2022/02/16 10:55:42;;;;;;;0.40;0.20;;;9.90;99.90;;;;;;4993426;28;20875;-71
2022/02/16 10:58:10;;;;;;;0.40;0.20;;;10.00;99.90;;;;;;4993071;28;20391;-71
2022/02/16 11:00:44;;;;;;;0.40;0.20;;;10.00;99.90;;;;;;4993289;28;20387;-71
2022/02/16 11:03:14;;;;;;;0.40;0.20;;;10.00;99.90;;;;;;4992694;28;20844;-71
2022/02/16 11:05:44;;;;;;;0.40;0.20;;;10.00;99.90;;;;;;4993501;28;20386;-72
2022/02/16 11:08:14;;;;;;;0.40;0.20;;;10.10;99.90;;;;;;4992571;28;20790;-71
2022/02/16 11:10:46;;;;;;;0.40;0.20;;;10.10;99.90;;;;;;4993036;28;20406;-71
2022/02/16 11:13:16;;;;;;;0.40;0.20;;;10.20;99.90;;;;;;4974316;28;20387;-72
2022/02/16 11:15:45;;;;;;;0.40;0.20;;;10.20;99.90;;;;;;4992903;28;20898;-71
2022/02/16 11:18:20;;;;;;;0.40;0.20;;;10.20;99.90;;;;;;4992654;28;20425;-71
2022/02/16 11:21:12;;;;;;;0.40;0.20;;;10.30;99.90;;;;;;4976199;28;20743;-71
2022/02/16 11:23:47;;;;;;;0.40;0.20;;;10.30;99.90;;;;;;4993010;28;20468;-71
2022/02/16 11:26:28;;;;;;;0.40;0.20;;;10.30;99.90;;;;;;4991438;28;20407;-71
2022/02/16 11:28:54;;;;;;;0.40;0.20;;;10.40;99.90;;;;;;4992993;28;20402;-71
2022/02/16 11:31:29;;;;;;;0.40;0.20;;;10.30;99.90;;;;;;4974143;28;20395;-72
2022/02/16 11:34:19;;;;;;;0.40;0.20;;;10.40;99.90;;;;;;4992840;28;20397;-71
2022/02/16 11:36:49;;;;;;;0.40;0.30;;;10.40;99.90;;;;;;4992901;28;20417;-71
2022/02/16 11:39:46;;;;;;;0.40;0.20;;;10.40;99.90;;;;;;4992008;28;20386;-71
2022/02/16 11:42:18;;;;;;;0.40;0.20;;;10.40;99.90;;;;;;4991762;28;20394;-71
2022/02/16 11:44:50;;;;;;;0.40;0.20;;;10.50;99.90;;;;;;4992671;28;20381;-71
2022/02/16 11:47:34;;;;;;;0.40;0.20;;;10.50;99.90;;;;;;4991931;28;20394;-72
2022/02/16 11:50:15;;;;;;;0.40;0.20;;;10.50;99.90;;;;;;4992396;28;20744;-71
2022/02/16 11:52:50;;;;;;;0.40;0.20;;;10.50;99.90;;;;;;4992438;28;20398;-72
2022/02/16 11:55:36;;;;;;;0.40;0.20;;;10.50;99.90;;;;;;4991557;28;20461;-72
2022/02/16 11:58:01;;;;;;;0.40;0.20;;;10.30;99.90;;;;;;4992362;28;20506;-72
2022/02/16 12:00:38;;;;;;;0.40;0.20;;;10.20;99.90;;;;;;4991821;28;20402;-71
2022/02/16 12:03:07;;;;;;;0.40;0.20;;;10.10;99.90;;;;;;4991479;28;20390;-71
2022/02/16 12:05:55;;;;;;;0.40;0.20;;;10.10;99.90;;;;;;4992252;28;20397;-71
2022/02/16 12:08:29;;;;;;;0.40;0.20;;;10.10;99.90;;;;;;4991339;28;20422;-72
2022/02/16 12:11:04;;;;;;;0.40;0.20;;;10.10;99.90;;;;;;4974443;28;20902;-71
2022/02/16 12:13:44;;;;;;;0.40;0.20;;;10.20;99.90;;;;;;4974796;28;20457;-71
2022/02/16 12:16:15;;;;;;;0.40;0.20;;;10.30;99.90;;;;;;4991255;28;20416;-71
2022/02/16 12:18:44;;;;;;;0.40;0.20;;;10.30;99.90;;;;;;4991818;28;20428;-72
2022/02/16 12:21:11;;;;;;;0.40;0.30;;;10.30;99.90;;;;;;4973948;28;20751;-71
2022/02/16 12:23:44;;;;;;;0.40;0.20;;;10.40;99.90;;;;;;4992124;28;20468;-71
2022/02/16 12:26:16;;;;;;;0.55;0.43;;;10.40;99.90;;;;;;4991679;28;20402;-72
2022/02/16 12:28:49;;;;;;;0.40;0.20;;;10.50;99.90;;;;;;4991936;28;20852;-73
2022/02/16 12:31:15;;;;;;;0.40;0.20;;;10.60;99.90;;;;;;4991432;28;20391;-71
2022/02/16 12:33:49;;;;;;;0.40;0.20;;;10.70;99.90;;;;;;4974283;28;20390;-71
2022/02/16 12:36:16;;;;;;;0.40;0.20;;;10.80;99.90;;;;;;4975241;28;20895;-71
2022/02/16 12:38:47;;;;;;;0.40;0.30;;;10.90;99.90;;;;;;4991377;28;20453;-71
2022/02/16 12:41:16;;;;;;;0.40;0.20;;;10.80;99.90;;;;;;4974602;28;20386;-71
2022/02/16 12:43:51;;;;;;;0.40;0.20;;;10.80;99.90;;;;;;4973295;28;20482;-71
2022/02/16 12:46:17;;;;;;;0.40;0.20;;;10.80;99.90;;;;;;4991297;28;20729;-71
2022/02/16 12:48:47;;;;;;;0.40;0.20;;;10.70;99.90;;;;;;4973515;28;20915;-71
2022/02/16 12:51:21;;;;;;;0.40;0.30;;;10.70;99.90;;;;;;4973930;28;20887;-72
2022/02/16 12:53:49;;;;;;;0.40;0.20;;;10.70;99.90;;;;;;4990838;28;20391;-71
2022/02/16 12:56:16;;;;;;;0.40;0.20;;;10.70;99.90;;;;;;5006564;28;20759;-72